Time;durP1;ratioP1;P1;durP2;ratioP2;P2;SDS_P1;SDS_P2;PMS_P1;PMS_P2;Temp;Humidity;BMP_temperature;BMP_pressure;BME280_temperature;BME280_humidity;BME280_pressure;Samples;Min_cycle;Max_cycle;Signal;HPM_P1;HPM_P2
2024/01/21 00:02:11;;;;;;;3.95;2.55;;;-0.10;99.90;;;;;;4891809;28;20103;-63
2024/01/21 00:04:37;;;;;;;3.65;2.63;;;0.00;99.90;;;;;;4911994;28;20030;-64
2024/01/21 00:07:03;;;;;;;5.93;2.58;;;0.00;99.90;;;;;;4920802;28;20233;-63
2024/01/21 00:09:28;;;;;;;3.28;2.60;;;-0.10;99.90;;;;;;4887392;28;20045;-64
2024/01/21 00:11:54;;;;;;;3.35;2.50;;;0.00;99.90;;;;;;4923457;28;20723;-64
2024/01/21 00:14:20;;;;;;;3.30;2.10;;;0.00;99.90;;;;;;4885234;28;20507;-63
2024/01/21 00:16:45;;;;;;;6.10;2.80;;;0.00;99.90;;;;;;4886796;28;20406;-63
2024/01/21 00:19:11;;;;;;;4.53;2.63;;;0.00;99.90;;;;;;4944715;28;20039;-62
2024/01/21 00:21:36;;;;;;;4.53;2.42;;;0.00;99.90;;;;;;4882858;28;20034;-61
2024/01/21 00:24:02;;;;;;;3.95;2.78;;;0.00;99.90;;;;;;4927693;28;20031;-63
2024/01/21 00:26:28;;;;;;;4.18;2.72;;;0.00;99.90;;;;;;4882637;28;20068;-63
2024/01/21 00:28:53;;;;;;;3.53;2.63;;;0.00;99.90;;;;;;4883814;28;22400;-63
2024/01/21 00:31:19;;;;;;;4.15;2.13;;;0.00;99.90;;;;;;4939696;28;20054;-62
2024/01/21 00:33:44;;;;;;;5.30;2.10;;;0.10;99.90;;;;;;4881966;28;20034;-63
2024/01/21 00:36:11;;;;;;;3.78;2.60;;;0.10;99.90;;;;;;4898593;28;20030;-63
2024/01/21 00:38:38;;;;;;;2.85;1.80;;;0.10;99.90;;;;;;4914509;28;21948;-63
2024/01/21 00:41:04;;;;;;;3.30;2.20;;;0.10;99.90;;;;;;4879563;28;21620;-63
2024/01/21 00:43:30;;;;;;;3.42;2.10;;;0.10;99.90;;;;;;4938221;28;20066;-63
2024/01/21 00:45:56;;;;;;;4.20;2.53;;;0.10;99.90;;;;;;4879313;28;20177;-66
2024/01/21 00:48:22;;;;;;;3.05;2.22;;;0.10;99.90;;;;;;4882940;28;20022;-63
2024/01/21 00:50:47;;;;;;;2.55;2.05;;;0.10;99.90;;;;;;4922548;28;20429;-62
2024/01/21 00:53:13;;;;;;;4.53;2.38;;;0.00;99.90;;;;;;4877431;28;20582;-62
2024/01/21 00:55:39;;;;;;;2.83;2.22;;;0.00;99.90;;;;;;4897287;28;20108;-64
2024/01/21 00:58:04;;;;;;;2.30;1.83;;;0.00;99.90;;;;;;4917028;28;20033;-63
2024/01/21 01:00:30;;;;;;;3.42;2.10;;;0.00;99.90;;;;;;4874063;28;20462;-62
2024/01/21 01:02:55;;;;;;;3.55;2.53;;;-0.10;99.90;;;;;;4918069;28;20038;-63
2024/01/21 01:05:21;;;;;;;2.50;2.10;;;-0.10;99.90;;;;;;4875850;28;20024;-63
2024/01/21 01:07:46;;;;;;;2.78;2.15;;;-0.10;99.90;;;;;;4876544;28;20510;-63
2024/01/21 01:10:12;;;;;;;3.70;2.30;;;-0.10;99.90;;;;;;4935045;28;20517;-62
2024/01/21 01:12:37;;;;;;;2.17;1.70;;;-0.10;99.90;;;;;;4873539;28;20026;-62
2024/01/21 01:15:04;;;;;;;4.15;2.00;;;-0.20;99.90;;;;;;4924404;28;20065;-63
2024/01/21 01:17:29;;;;;;;2.35;1.90;;;-0.20;99.90;;;;;;4876977;28;20034;-63
2024/01/21 01:19:55;;;;;;;3.00;1.80;;;-0.20;99.90;;;;;;4869080;28;21587;-63
2024/01/21 01:22:20;;;;;;;3.67;1.80;;;-0.20;99.90;;;;;;4948443;28;20027;-63
2024/01/21 01:24:46;;;;;;;2.70;1.80;;;-0.20;99.90;;;;;;4871608;28;20041;-63
2024/01/21 01:27:12;;;;;;;3.05;1.83;;;-0.20;99.90;;;;;;4888708;28;20026;-65
2024/01/21 01:29:38;;;;;;;3.80;2.15;;;-0.20;99.90;;;;;;4901059;28;20057;-63
2024/01/21 01:32:05;;;;;;;4.25;1.75;;;-0.20;99.90;;;;;;4910075;28;20030;-62
2024/01/21 01:34:30;;;;;;;2.17;1.60;;;-0.20;99.90;;;;;;4932258;28;20069;-61
2024/01/21 01:36:56;;;;;;;2.60;2.03;;;-0.20;99.90;;;;;;4902698;28;20113;-62
2024/01/21 01:39:22;;;;;;;1.77;1.45;;;-0.30;99.90;;;;;;4880541;28;20030;-62
2024/01/21 01:41:47;;;;;;;2.40;1.70;;;-0.30;99.90;;;;;;4961862;28;20133;-62
2024/01/21 01:44:13;;;;;;;2.38;2.17;;;-0.30;99.90;;;;;;4863744;28;20023;-62
2024/01/21 01:46:39;;;;;;;2.80;1.73;;;-0.20;99.90;;;;;;4889244;28;20475;-63
2024/01/21 01:49:05;;;;;;;2.40;1.42;;;-0.20;99.90;;;;;;4916157;28;20487;-61
2024/01/21 01:51:33;;;;;;;1.35;1.25;;;-0.20;99.90;;;;;;4923216;28;21451;-61
2024/01/21 01:53:58;;;;;;;2.72;1.90;;;-0.20;99.90;;;;;;4978849;28;20034;-61
2024/01/21 01:56:24;;;;;;;2.15;1.55;;;-0.10;99.90;;;;;;4928343;28;20076;-62
2024/01/21 01:58:51;;;;;;;1.92;1.65;;;-0.10;99.90;;;;;;4919175;28;21051;-61
2024/01/21 02:01:17;;;;;;;1.70;1.58;;;-0.10;99.90;;;;;;4920651;28;20037;-61
2024/01/21 02:03:42;;;;;;;2.00;1.63;;;-0.10;99.90;;;;;;4911581;28;20037;-62
2024/01/21 02:06:08;;;;;;;3.05;1.92;;;-0.10;99.90;;;;;;4952261;28;20572;-62
2024/01/21 02:08:33;;;;;;;2.78;1.77;;;-0.20;99.90;;;;;;4936515;28;20082;-62
2024/01/21 02:10:59;;;;;;;3.08;1.80;;;-0.20;99.90;;;;;;4926741;28;20518;-61
2024/01/21 02:13:28;;;;;;;3.38;1.98;;;-0.20;99.90;;;;;;4900208;28;20095;-60
2024/01/21 02:15:53;;;;;;;3.15;1.63;;;-0.20;99.90;;;;;;4910148;28;20053;-61
2024/01/21 02:18:19;;;;;;;1.70;1.42;;;-0.20;99.90;;;;;;4910912;28;20118;-61
2024/01/21 02:20:45;;;;;;;2.70;1.40;;;-0.10;99.90;;;;;;4957707;28;20026;-61
2024/01/21 02:23:11;;;;;;;3.15;1.58;;;-0.10;99.90;;;;;;4923284;28;20044;-60
2024/01/21 02:25:37;;;;;;;2.60;1.73;;;-0.10;99.90;;;;;;4911262;28;20030;-60
2024/01/21 02:28:02;;;;;;;2.60;1.90;;;-0.10;99.90;;;;;;4903132;28;20030;-59
2024/01/21 02:30:28;;;;;;;2.17;1.45;;;-0.10;99.90;;;;;;4906556;28;21300;-61
2024/01/21 02:32:53;;;;;;;4.90;1.42;;;-0.10;99.90;;;;;;4957970;28;22294;-60
2024/01/21 02:35:19;;;;;;;2.60;1.75;;;-0.10;99.90;;;;;;4917279;28;20049;-61
2024/01/21 02:37:44;;;;;;;4.10;1.77;;;-0.10;99.90;;;;;;4906891;28;20667;-62
2024/01/21 02:40:10;;;;;;;3.92;1.90;;;-0.10;99.90;;;;;;4901236;28;20045;-60
2024/01/21 02:42:36;;;;;;;1.60;1.30;;;-0.10;99.90;;;;;;4887326;28;20039;-61
2024/01/21 02:45:01;;;;;;;2.58;1.55;;;-0.10;99.90;;;;;;4957423;28;20036;-59
2024/01/21 02:47:27;;;;;;;2.95;1.58;;;-0.10;99.90;;;;;;4918107;28;20026;-61
2024/01/21 02:49:53;;;;;;;2.80;1.70;;;-0.10;99.90;;;;;;4897241;28;20052;-60
2024/01/21 02:52:18;;;;;;;2.30;1.52;;;-0.10;99.90;;;;;;4893155;28;20037;-61
2024/01/21 02:54:44;;;;;;;2.63;1.70;;;-0.10;99.90;;;;;;4890402;28;20042;-61
2024/01/21 02:57:09;;;;;;;3.05;1.73;;;-0.10;99.90;;;;;;4934602;28;20451;-63
2024/01/21 02:59:35;;;;;;;3.55;1.75;;;-0.20;99.90;;;;;;4926695;28;20042;-62
2024/01/21 03:02:00;;;;;;;1.95;1.30;;;-0.20;99.90;;;;;;4912740;28;20033;-59
2024/01/21 03:04:26;;;;;;;1.98;1.55;;;-0.30;99.90;;;;;;4889604;28;20096;-60
2024/01/21 03:06:52;;;;;;;3.08;1.92;;;-0.30;99.90;;;;;;4949599;28;20117;-59
2024/01/21 03:09:17;;;;;;;2.28;1.13;;;-0.30;99.90;;;;;;4921394;28;20027;-62
2024/01/21 03:11:43;;;;;;;3.42;1.77;;;-0.40;99.90;;;;;;4957922;28;20033;-59
2024/01/21 03:14:09;;;;;;;3.42;1.48;;;-0.40;99.90;;;;;;4972674;28;20038;-60
2024/01/21 03:16:34;;;;;;;2.10;1.60;;;-0.50;99.90;;;;;;4921502;28;20062;-59
2024/01/21 03:19:00;;;;;;;3.05;1.52;;;-0.50;99.90;;;;;;4924730;28;20062;-58
2024/01/21 03:21:25;;;;;;;4.95;1.55;;;-0.60;99.90;;;;;;4942581;28;20562;-60
2024/01/21 03:23:51;;;;;;;2.33;1.60;;;-0.60;99.90;;;;;;4945078;28;20038;-61
2024/01/21 03:26:16;;;;;;;2.80;1.45;;;-0.60;99.90;;;;;;4965575;28;20057;-60
2024/01/21 03:28:42;;;;;;;2.40;1.58;;;-0.70;99.90;;;;;;4940947;28;20026;-59
2024/01/21 03:31:07;;;;;;;3.45;2.13;;;-0.70;99.90;;;;;;4934968;28;20076;-62
2024/01/21 03:33:33;;;;;;;3.63;2.05;;;-0.70;99.90;;;;;;4941596;28;22169;-60
2024/01/21 03:36:00;;;;;;;3.20;1.98;;;-0.70;99.90;;;;;;4942424;28;20034;-58
2024/01/21 03:38:26;;;;;;;3.42;1.98;;;-0.70;99.90;;;;;;4963886;28;20423;-59
2024/01/21 03:40:51;;;;;;;3.05;2.22;;;-0.70;99.90;;;;;;4900959;28;20052;-61
2024/01/21 03:43:17;;;;;;;3.00;2.05;;;-0.70;99.90;;;;;;4948430;28;20045;-60
2024/01/21 03:45:43;;;;;;;1.88;1.70;;;-0.70;99.90;;;;;;4958233;28;20022;-57
2024/01/21 03:48:09;;;;;;;2.72;2.15;;;-0.70;99.90;;;;;;4946644;28;20049;-59
2024/01/21 03:50:34;;;;;;;2.70;1.77;;;-0.70;99.90;;;;;;4950793;28;20510;-61
2024/01/21 03:53:00;;;;;;;2.95;1.92;;;-0.70;99.90;;;;;;4899082;28;20034;-58
2024/01/21 03:55:26;;;;;;;2.58;1.95;;;-0.70;99.90;;;;;;4930033;28;21815;-58
2024/01/21 03:57:51;;;;;;;2.53;1.83;;;-0.70;99.90;;;;;;4928450;28;20042;-59
2024/01/21 04:00:17;;;;;;;2.95;2.03;;;-0.70;99.90;;;;;;4943479;28;20038;-61
2024/01/21 04:02:43;;;;;;;4.10;2.33;;;-0.70;99.90;;;;;;4938834;28;20127;-57
2024/01/21 04:05:08;;;;;;;5.47;2.20;;;-0.70;99.90;;;;;;4950190;28;20600;-58
2024/01/21 04:07:34;;;;;;;4.28;2.55;;;-0.70;99.90;;;;;;4921443;28;20034;-59
2024/01/21 04:10:00;;;;;;;4.05;2.78;;;-0.70;99.90;;;;;;4926746;28;20037;-57
2024/01/21 04:12:26;;;;;;;3.83;2.20;;;-0.70;99.90;;;;;;4929072;28;20527;-58
2024/01/21 04:14:51;;;;;;;2.67;1.42;;;-0.70;99.90;;;;;;4927734;28;22012;-58
2024/01/21 04:17:18;;;;;;;2.70;2.10;;;-0.60;99.90;;;;;;4920916;28;20049;-60
2024/01/21 04:19:45;;;;;;;2.67;1.85;;;-0.60;99.90;;;;;;4914459;28;20645;-58
2024/01/21 04:22:11;;;;;;;4.88;2.50;;;-0.60;99.90;;;;;;4924595;28;20279;-59
2024/01/21 04:24:37;;;;;;;3.50;2.38;;;-0.60;99.90;;;;;;4916237;28;20117;-57
2024/01/21 04:27:02;;;;;;;4.43;2.25;;;-0.50;99.90;;;;;;4928543;28;20030;-58
2024/01/21 04:29:28;;;;;;;2.63;2.15;;;-0.50;99.90;;;;;;4957378;28;20098;-59
2024/01/21 04:31:53;;;;;;;3.53;2.45;;;-0.50;99.90;;;;;;4923676;28;20045;-57
2024/01/21 04:34:19;;;;;;;6.35;2.35;;;-0.50;99.90;;;;;;4863594;28;20034;-57
2024/01/21 04:36:44;;;;;;;4.10;2.25;;;-0.50;99.90;;;;;;4939971;28;20030;-59
2024/01/21 04:39:11;;;;;;;4.30;2.13;;;-0.50;99.90;;;;;;4920577;28;20042;-58
2024/01/21 04:41:39;;;;;;;4.90;2.38;;;-0.50;99.90;;;;;;4933743;28;20030;-61
2024/01/21 04:44:04;;;;;;;3.85;2.20;;;-0.50;99.90;;;;;;4951460;28;20109;-59
2024/01/21 04:46:30;;;;;;;5.03;2.72;;;-0.50;99.90;;;;;;4904840;28;21208;-56
2024/01/21 04:48:55;;;;;;;4.40;2.13;;;-0.50;99.90;;;;;;4915692;28;20039;-59
2024/01/21 04:51:21;;;;;;;3.35;2.22;;;-0.50;99.90;;;;;;4913753;28;20418;-58
2024/01/21 04:53:46;;;;;;;4.45;2.47;;;-0.50;99.90;;;;;;4920096;28;20591;-58
2024/01/21 04:56:16;;;;;;;5.78;2.10;;;-0.50;99.90;;;;;;4932356;28;20065;-59
2024/01/21 04:58:42;;;;;;;5.05;2.90;;;-0.50;99.90;;;;;;4909941;28;20026;-59
2024/01/21 05:01:07;;;;;;;3.25;2.33;;;-0.40;99.90;;;;;;4917613;28;20177;-60
2024/01/21 05:03:36;;;;;;;3.72;2.08;;;-0.40;99.90;;;;;;4900189;28;21624;-58
2024/01/21 05:06:03;;;;;;;4.70;2.17;;;-0.40;99.90;;;;;;4909515;28;20109;-58
2024/01/21 05:08:28;;;;;;;4.18;2.22;;;-0.40;99.90;;;;;;4949859;28;20018;-58
2024/01/21 05:10:54;;;;;;;4.63;2.42;;;-0.40;99.90;;;;;;4901146;28;20053;-57
2024/01/21 05:13:19;;;;;;;3.35;2.38;;;-0.30;99.90;;;;;;4935710;28;20041;-58
2024/01/21 05:15:45;;;;;;;5.20;2.60;;;-0.30;99.90;;;;;;4934004;28;20023;-57
2024/01/21 05:18:11;;;;;;;5.05;2.28;;;-0.30;99.90;;;;;;4904680;28;20050;-57
2024/01/21 05:20:36;;;;;;;2.83;1.90;;;-0.30;99.90;;;;;;4915646;28;20098;-60
2024/01/21 05:23:02;;;;;;;2.00;1.65;;;-0.20;99.90;;;;;;4924092;28;20051;-59
2024/01/21 05:25:28;;;;;;;3.78;2.25;;;-0.20;99.90;;;;;;4902466;28;21707;-57
2024/01/21 05:27:54;;;;;;;2.83;1.92;;;-0.20;99.90;;;;;;4941471;28;20034;-58
2024/01/21 05:30:20;;;;;;;2.95;2.17;;;-0.10;99.90;;;;;;4924428;28;20018;-57
2024/01/21 05:32:46;;;;;;;2.50;1.73;;;-0.10;99.90;;;;;;4904969;28;20517;-59
2024/01/21 05:35:13;;;;;;;4.25;2.50;;;-0.10;99.90;;;;;;4950276;28;20026;-58
2024/01/21 05:37:38;;;;;;;2.17;1.90;;;-0.10;99.90;;;;;;4913397;28;20015;-60
2024/01/21 05:40:05;;;;;;;3.13;2.28;;;0.00;99.90;;;;;;4936461;28;20088;-58
2024/01/21 05:42:30;;;;;;;3.03;2.05;;;0.00;99.90;;;;;;4905879;28;20138;-58
2024/01/21 05:44:56;;;;;;;3.40;1.83;;;0.00;99.90;;;;;;4938656;28;20122;-57
2024/01/21 05:47:21;;;;;;;2.88;1.95;;;0.10;99.90;;;;;;4951850;28;20023;-59
2024/01/21 05:49:47;;;;;;;2.83;1.65;;;0.10;99.90;;;;;;4909608;28;20041;-58
2024/01/21 05:52:12;;;;;;;2.17;1.85;;;0.10;99.90;;;;;;4911945;28;20064;-60
2024/01/21 05:54:39;;;;;;;2.55;1.33;;;0.10;99.90;;;;;;4937956;28;20026;-57
2024/01/21 05:57:05;;;;;;;2.72;1.65;;;0.10;99.90;;;;;;4911130;28;20029;-60
2024/01/21 05:59:32;;;;;;;2.35;1.50;;;0.20;99.90;;;;;;4952026;28;20027;-58
2024/01/21 06:01:57;;;;;;;1.48;1.25;;;0.20;99.90;;;;;;4907414;28;20018;-58
2024/01/21 06:04:23;;;;;;;3.20;2.03;;;0.20;99.90;;;;;;4901895;28;20645;-56
2024/01/21 06:06:49;;;;;;;2.72;1.75;;;0.20;99.90;;;;;;4933668;28;20046;-57
2024/01/21 06:09:15;;;;;;;2.17;1.67;;;0.30;99.90;;;;;;4904132;28;20689;-55
2024/01/21 06:11:43;;;;;;;2.13;1.48;;;0.40;99.90;;;;;;4909236;28;20667;-60
2024/01/21 06:14:09;;;;;;;2.15;1.50;;;0.40;99.90;;;;;;4947841;28;20030;-57
2024/01/21 06:16:35;;;;;;;2.70;1.65;;;0.40;99.90;;;;;;4899917;28;20234;-58
2024/01/21 06:19:01;;;;;;;1.60;1.30;;;0.40;99.90;;;;;;4931862;28;20038;-56
2024/01/21 06:21:26;;;;;;;2.08;1.40;;;0.30;99.90;;;;;;4897630;28;21301;-54
2024/01/21 06:23:52;;;;;;;3.13;1.42;;;0.40;99.90;;;;;;4904888;22;21785;-56
2024/01/21 06:26:19;;;;;;;2.78;1.38;;;0.30;99.90;;;;;;4947348;28;20047;-52
2024/01/21 06:28:49;;;;;;;3.53;1.25;;;0.30;99.90;;;;;;4897711;28;20113;-51
2024/01/21 06:31:15;;;;;;;3.42;1.70;;;0.30;99.90;;;;;;4896867;28;20057;-53
2024/01/21 06:33:41;;;;;;;2.90;1.38;;;0.40;99.90;;;;;;4946838;28;20141;-50
2024/01/21 06:36:07;;;;;;;2.13;1.35;;;0.40;99.90;;;;;;4887452;28;20030;-53
2024/01/21 06:38:33;;;;;;;3.03;1.63;;;0.40;99.90;;;;;;4938278;28;20041;-52
2024/01/21 06:40:59;;;;;;;1.90;1.70;;;0.50;99.90;;;;;;4897286;28;20038;-51
2024/01/21 06:43:24;;;;;;;2.13;1.35;;;0.40;99.90;;;;;;4873424;28;20026;-50
2024/01/21 06:45:50;;;;;;;2.15;1.33;;;0.50;99.90;;;;;;4928396;28;20065;-51
2024/01/21 06:48:16;;;;;;;2.47;1.50;;;0.40;99.60;;;;;;4887158;28;20045;-51
2024/01/21 06:50:41;;;;;;;1.85;1.55;;;0.40;99.90;;;;;;4911570;28;20632;-57
2024/01/21 06:53:07;;;;;;;7.82;1.30;;;0.40;99.90;;;;;;4919678;28;20539;-50
2024/01/21 06:55:33;;;;;;;1.80;1.20;;;0.40;99.90;;;;;;4883123;28;20046;-51
2024/01/21 06:57:58;;;;;;;1.83;1.58;;;0.40;99.90;;;;;;4920963;28;20058;-51
2024/01/21 07:00:24;;;;;;;1.45;1.35;;;0.40;99.90;;;;;;4879385;28;20039;-49
2024/01/21 07:02:49;;;;;;;2.20;1.20;;;0.40;99.90;;;;;;4883279;28;20038;-49
2024/01/21 07:05:15;;;;;;;2.13;1.40;;;0.40;99.90;;;;;;4938800;28;20030;-50
2024/01/21 07:07:40;;;;;;;2.72;1.75;;;0.40;99.90;;;;;;4883631;28;20022;-52
2024/01/21 07:10:07;;;;;;;2.78;1.52;;;0.40;99.90;;;;;;4923780;28;20015;-50
2024/01/21 07:12:32;;;;;;;2.72;1.73;;;0.40;99.90;;;;;;4893955;28;20038;-55
2024/01/21 07:14:58;;;;;;;1.45;1.17;;;0.40;99.90;;;;;;4874371;28;20808;-52
2024/01/21 07:17:23;;;;;;;2.33;1.60;;;0.40;99.90;;;;;;4935587;28;20026;-50
2024/01/21 07:19:52;;;;;;;1.40;1.27;;;0.40;99.90;;;;;;4881115;28;20038;-51
2024/01/21 07:22:19;;;;;;;2.13;1.58;;;0.40;99.90;;;;;;4875269;28;20546;-59
2024/01/21 07:24:44;;;;;;;1.67;1.08;;;0.40;99.90;;;;;;4923873;28;20080;-49
2024/01/21 07:27:10;;;;;;;2.53;1.40;;;0.40;99.90;;;;;;4881590;28;20034;-53
2024/01/21 07:29:35;;;;;;;3.67;1.40;;;0.40;99.90;;;;;;4923817;28;20057;-58
2024/01/21 07:32:01;;;;;;;1.55;1.20;;;0.40;99.90;;;;;;4888277;28;20030;-52
2024/01/21 07:34:27;;;;;;;2.30;1.30;;;0.50;99.90;;;;;;4874683;28;21625;-53
2024/01/21 07:36:53;;;;;;;1.55;1.42;;;0.50;99.90;;;;;;4921161;28;20426;-53
2024/01/21 07:39:19;;;;;;;2.97;1.23;;;0.50;99.80;;;;;;4875116;28;20018;-51
2024/01/21 07:41:45;;;;;;;1.40;1.02;;;0.50;99.90;;;;;;4893450;28;20022;-58
2024/01/21 07:44:10;;;;;;;5.57;1.10;;;0.50;99.90;;;;;;4908503;28;20022;-53
2024/01/21 07:46:36;;;;;;;5.00;1.67;;;0.50;99.90;;;;;;4877060;28;22668;-53
2024/01/21 07:49:01;;;;;;;4.38;1.33;;;0.60;99.90;;;;;;4914414;28;20027;-49
2024/01/21 07:51:27;;;;;;;2.58;1.60;;;0.60;99.80;;;;;;4888393;28;20065;-53
2024/01/21 07:53:53;;;;;;;2.30;1.30;;;0.70;98.40;;;;;;4877799;28;20414;-52
2024/01/21 07:56:19;;;;;;;2.08;1.40;;;0.70;98.80;;;;;;4929279;28;20065;-52
2024/01/21 07:58:44;;;;;;;2.20;1.75;;;0.70;98.50;;;;;;4907811;28;20102;-52
2024/01/21 08:01:11;;;;;;;1.98;1.63;;;0.70;99.70;;;;;;4951407;28;20571;-57
2024/01/21 08:03:37;;;;;;;2.45;1.33;;;0.70;99.20;;;;;;4923987;28;20030;-50
2024/01/21 08:06:04;;;;;;;3.03;1.70;;;0.80;98.50;;;;;;4923246;28;20026;-53
2024/01/21 08:08:30;;;;;;;2.28;1.60;;;0.70;98.70;;;;;;4927416;28;20690;-50
2024/01/21 08:10:56;;;;;;;3.22;1.70;;;0.80;98.50;;;;;;4862686;28;20093;-52
2024/01/21 08:13:21;;;;;;;2.55;1.77;;;0.80;98.30;;;;;;4878984;28;20510;-54
2024/01/21 08:15:47;;;;;;;3.80;1.90;;;0.90;98.40;;;;;;4923248;28;20061;-53
2024/01/21 08:18:13;;;;;;;4.93;1.98;;;0.80;99.50;;;;;;4862693;28;20041;-50
2024/01/21 08:20:38;;;;;;;2.70;2.10;;;0.90;99.20;;;;;;4899565;28;20034;-58
2024/01/21 08:23:04;;;;;;;3.28;2.20;;;0.90;98.30;;;;;;4908126;28;20030;-51
2024/01/21 08:25:29;;;;;;;4.57;2.08;;;0.90;98.50;;;;;;4881623;28;21650;-50
2024/01/21 08:27:55;;;;;;;5.03;2.00;;;0.90;98.40;;;;;;4901036;28;20081;-51
2024/01/21 08:30:21;;;;;;;2.22;1.75;;;0.90;98.80;;;;;;4926456;28;20106;-57
2024/01/21 08:32:46;;;;;;;1.73;1.60;;;1.00;98.10;;;;;;4917888;28;20053;-52
2024/01/21 08:35:12;;;;;;;2.53;1.55;;;1.00;97.90;;;;;;4915772;28;20100;-49
2024/01/21 08:37:38;;;;;;;2.15;1.90;;;1.10;97.70;;;;;;4943731;28;20054;-51
2024/01/21 08:40:04;;;;;;;3.55;2.47;;;1.00;97.80;;;;;;4950947;28;20050;-51
2024/01/21 08:42:30;;;;;;;3.60;2.20;;;1.10;97.80;;;;;;4924239;28;20026;-49
2024/01/21 08:44:56;;;;;;;3.50;2.85;;;1.10;98.00;;;;;;4908936;28;20093;-50
2024/01/21 08:47:22;;;;;;;3.13;2.33;;;1.10;98.70;;;;;;4907185;28;20018;-49
2024/01/21 08:49:47;;;;;;;3.25;2.47;;;1.10;96.40;;;;;;4905162;28;20487;-51
2024/01/21 08:52:13;;;;;;;5.70;2.35;;;1.20;98.60;;;;;;4933512;28;20033;-57
2024/01/21 08:54:38;;;;;;;2.42;1.95;;;1.20;98.00;;;;;;4945525;28;20035;-53
2024/01/21 08:57:04;;;;;;;2.63;1.80;;;1.20;97.90;;;;;;4948688;28;20142;-51
2024/01/21 08:59:30;;;;;;;2.00;1.58;;;1.20;98.20;;;;;;4904327;28;20042;-49
2024/01/21 09:01:56;;;;;;;2.53;2.33;;;1.20;97.20;;;;;;4897847;28;20054;-52
2024/01/21 09:04:21;;;;;;;2.33;2.13;;;1.30;97.50;;;;;;4910147;28;20038;-53
2024/01/21 09:06:47;;;;;;;4.90;3.10;;;1.30;97.80;;;;;;4969081;28;20033;-53
2024/01/21 09:09:13;;;;;;;4.80;3.05;;;1.30;97.30;;;;;;4925477;28;20606;-53
2024/01/21 09:11:39;;;;;;;4.82;2.88;;;1.40;97.40;;;;;;4894854;28;20436;-53
2024/01/21 09:14:06;;;;;;;3.50;2.50;;;1.40;97.80;;;;;;4905620;28;20084;-51
2024/01/21 09:16:32;;;;;;;9.05;3.00;;;1.40;97.10;;;;;;4890164;28;21564;-51
2024/01/21 09:18:58;;;;;;;4.00;2.20;;;1.40;96.70;;;;;;4960351;28;20441;-51
2024/01/21 09:21:24;;;;;;;3.28;2.10;;;1.50;95.70;;;;;;4920685;28;20093;-50
2024/01/21 09:23:50;;;;;;;2.97;2.13;;;1.50;96.00;;;;;;4904312;28;20026;-53
2024/01/21 09:26:15;;;;;;;3.42;1.65;;;1.60;96.10;;;;;;4901553;28;20517;-53
2024/01/21 09:28:43;;;;;;;13.55;6.70;;;1.60;97.40;;;;;;4891970;28;20040;-53
2024/01/21 09:31:09;;;;;;;8.82;4.75;;;1.60;96.90;;;;;;4949682;28;20248;-60
2024/01/21 09:33:36;;;;;;;6.55;3.97;;;1.70;97.00;;;;;;4928629;28;20033;-61
2024/01/21 09:36:02;;;;;;;3.25;2.38;;;1.70;97.20;;;;;;4917746;28;20638;-54
2024/01/21 09:38:27;;;;;;;4.53;2.80;;;1.70;96.20;;;;;;4953372;28;20030;-56
2024/01/21 09:41:13;;;;;;;3.38;1.90;;;1.80;95.90;;;;;;4952848;28;20062;-53
2024/01/21 09:43:42;;;;;;;3.35;2.40;;;1.80;94.50;;;;;;4963524;28;20041;-53
2024/01/21 09:46:12;;;;;;;2.90;2.15;;;1.90;94.70;;;;;;4961025;28;20031;-54
2024/01/21 09:48:38;;;;;;;4.68;1.60;;;1.90;95.30;;;;;;4941274;28;20034;-59
2024/01/21 09:51:05;;;;;;;1.45;1.33;;;2.10;95.30;;;;;;4962736;28;20029;-53
2024/01/21 09:53:31;;;;;;;2.67;1.70;;;2.20;94.70;;;;;;4945789;28;20034;-52
2024/01/21 09:56:04;;;;;;;3.58;1.80;;;2.20;94.30;;;;;;4958059;28;20028;-53
2024/01/21 09:58:51;;;;;;;2.53;1.55;;;2.20;95.20;;;;;;4930317;28;20076;-55
2024/01/21 10:01:17;;;;;;;5.80;1.77;;;2.30;94.40;;;;;;4904164;28;20033;-54
2024/01/21 10:03:46;;;;;;;2.28;1.83;;;2.40;93.70;;;;;;4925739;28;20035;-53
2024/01/21 10:06:11;;;;;;;2.40;1.90;;;2.50;93.80;;;;;;4946403;28;20079;-54
2024/01/21 10:08:40;;;;;;;3.05;1.50;;;2.50;93.80;;;;;;4936825;28;20038;-52
2024/01/21 10:11:06;;;;;;;3.25;1.60;;;2.60;92.10;;;;;;4925036;28;20030;-53
2024/01/21 10:13:35;;;;;;;2.13;1.48;;;2.60;92.80;;;;;;4929237;28;21620;-50
2024/01/21 10:16:00;;;;;;;2.63;1.70;;;2.70;93.70;;;;;;4934398;28;20023;-56
2024/01/21 10:18:28;;;;;;;4.18;1.88;;;2.80;93.30;;;;;;4981828;28;20080;-51
2024/01/21 10:20:55;;;;;;;2.17;1.65;;;2.80;92.70;;;;;;4914395;28;20041;-51
2024/01/21 10:23:21;;;;;;;2.88;1.80;;;2.80;92.80;;;;;;4899849;28;20031;-49
2024/01/21 10:25:48;;;;;;;4.43;1.67;;;2.80;93.50;;;;;;4948980;28;20036;-53
2024/01/21 10:28:15;;;;;;;2.28;1.60;;;2.80;93.70;;;;;;4918774;28;20030;-57
2024/01/21 10:30:43;;;;;;;1.98;1.48;;;2.80;93.00;;;;;;4934878;28;20022;-49
2024/01/21 10:33:08;;;;;;;2.17;1.60;;;2.80;92.80;;;;;;4965918;28;20594;-51
2024/01/21 10:35:34;;;;;;;1.77;1.65;;;2.90;93.40;;;;;;4913608;28;20032;-52
2024/01/21 10:38:02;;;;;;;3.85;1.63;;;2.90;91.80;;;;;;4938685;28;20447;-53
2024/01/21 10:40:28;;;;;;;2.72;1.42;;;3.00;93.30;;;;;;4931249;28;20510;-49
2024/01/21 10:42:58;;;;;;;1.98;1.50;;;2.90;93.50;;;;;;4936050;28;20034;-51
2024/01/21 10:45:25;;;;;;;4.90;1.63;;;2.90;92.90;;;;;;4945934;28;20108;-52
2024/01/21 10:47:52;;;;;;;3.72;1.95;;;2.90;93.60;;;;;;4925332;28;20030;-55
2024/01/21 10:50:20;;;;;;;2.80;1.60;;;2.90;94.30;;;;;;4908205;28;20026;-53
2024/01/21 10:52:48;;;;;;;3.00;1.98;;;2.80;93.60;;;;;;4914218;28;20088;-55
2024/01/21 10:55:13;;;;;;;4.93;2.10;;;2.80;92.90;;;;;;4916965;28;20188;-59
2024/01/21 10:57:39;;;;;;;5.40;3.08;;;2.90;94.10;;;;;;4906236;28;20513;-59
2024/01/21 11:00:07;;;;;;;6.10;1.88;;;2.90;94.80;;;;;;4952080;28;20503;-53
2024/01/21 11:02:33;;;;;;;3.78;1.60;;;2.80;94.60;;;;;;4916425;28;20026;-53
2024/01/21 11:04:58;;;;;;;3.20;1.90;;;2.80;94.30;;;;;;4913269;28;20049;-54
2024/01/21 11:07:29;;;;;;;2.85;2.20;;;2.80;93.90;;;;;;4922372;28;20018;-52
2024/01/21 11:09:56;;;;;;;4.63;1.80;;;2.90;94.10;;;;;;4927550;28;21830;-54
2024/01/21 11:12:22;;;;;;;3.05;2.25;;;2.90;95.10;;;;;;4957097;28;20050;-54
2024/01/21 11:14:48;;;;;;;2.75;1.88;;;2.90;94.80;;;;;;4901800;28;20435;-53
2024/01/21 11:17:17;;;;;;;2.90;2.22;;;2.90;95.40;;;;;;4914112;28;20034;-53
2024/01/21 11:19:51;;;;;;;4.05;1.95;;;2.90;95.30;;;;;;4937088;28;20034;-56
2024/01/21 11:22:23;;;;;;;4.13;1.92;;;2.90;95.30;;;;;;4928071;28;20525;-53
2024/01/21 11:24:55;;;;;;;2.45;1.80;;;2.90;95.90;;;;;;4910486;28;20042;-53
2024/01/21 11:27:22;;;;;;;4.18;1.90;;;2.90;94.70;;;;;;4957803;28;20030;-55
2024/01/21 11:29:53;;;;;;;2.50;1.65;;;3.00;94.80;;;;;;4922775;28;20032;-53
2024/01/21 11:32:28;;;;;;;5.28;1.75;;;3.00;94.20;;;;;;4923497;28;20030;-53
2024/01/21 11:34:54;;;;;;;8.82;4.90;;;3.00;95.30;;;;;;4944741;28;20026;-53
2024/01/21 11:37:20;;;;;;;3.63;2.47;;;3.00;94.50;;;;;;4921128;28;20157;-53
2024/01/21 11:39:46;;;;;;;4.00;2.17;;;3.00;94.50;;;;;;4921417;28;20120;-51
2024/01/21 11:42:12;;;;;;;3.28;1.95;;;3.00;94.40;;;;;;4957507;28;20038;-55
2024/01/21 11:44:39;;;;;;;2.92;1.90;;;3.00;95.40;;;;;;4919022;28;20030;-50
2024/01/21 11:47:06;;;;;;;2.50;2.13;;;3.00;95.30;;;;;;4944002;28;20376;-52
2024/01/21 11:49:33;;;;;;;3.20;2.20;;;3.10;95.10;;;;;;4915340;28;20034;-53
2024/01/21 11:52:00;;;;;;;5.25;2.85;;;3.00;95.90;;;;;;4913006;28;21998;-54
2024/01/21 11:54:26;;;;;;;3.63;2.40;;;3.00;95.90;;;;;;4965901;28;20431;-52
2024/01/21 11:56:55;;;;;;;3.00;2.70;;;3.00;95.90;;;;;;4898402;28;20042;-55
2024/01/21 11:59:21;;;;;;;3.17;2.58;;;3.00;95.90;;;;;;4914362;28;20156;-53
2024/01/21 12:01:48;;;;;;;2.45;2.10;;;3.00;97.00;;;;;;4941970;28;20121;-56
2024/01/21 12:04:14;;;;;;;3.38;1.85;;;3.00;97.90;;;;;;4913781;28;20028;-52
2024/01/21 12:06:46;;;;;;;2.67;2.20;;;3.00;99.30;;;;;;4922866;28;20096;-58
2024/01/21 12:09:12;;;;;;;3.50;2.28;;;3.00;98.40;;;;;;4950916;28;20578;-54
2024/01/21 12:11:39;;;;;;;3.45;2.50;;;3.00;98.70;;;;;;4918722;28;20026;-51
2024/01/21 12:14:07;;;;;;;3.17;2.28;;;3.10;99.40;;;;;;4933776;28;20073;-52
2024/01/21 12:16:34;;;;;;;4.45;2.50;;;3.10;99.70;;;;;;4899167;28;20029;-51
2024/01/21 12:19:00;;;;;;;3.20;2.20;;;3.20;99.90;;;;;;4902319;28;21088;-53
2024/01/21 12:21:30;;;;;;;3.15;1.90;;;3.30;99.90;;;;;;4951739;28;20376;-52
2024/01/21 12:23:58;;;;;;;2.40;2.08;;;3.40;99.90;;;;;;4925229;22;20150;-55
2024/01/21 12:26:27;;;;;;;3.97;2.33;;;3.30;99.70;;;;;;4884927;28;20026;-52
2024/01/21 12:29:09;;;;;;;3.03;2.33;;;3.40;99.80;;;;;;4907757;28;20177;-53
2024/01/21 12:31:37;;;;;;;4.93;2.20;;;3.40;99.90;;;;;;4878764;28;20459;-53
2024/01/21 12:34:08;;;;;;;2.58;1.80;;;3.40;99.20;;;;;;4879616;28;21385;-53
2024/01/21 12:36:36;;;;;;;4.15;2.25;;;3.40;98.90;;;;;;4924580;28;20030;-61
2024/01/21 12:39:04;;;;;;;2.72;1.88;;;3.50;99.10;;;;;;4883321;28;20027;-52
2024/01/21 12:41:30;;;;;;;4.45;2.47;;;3.50;98.40;;;;;;4877218;28;21026;-52
2024/01/21 12:43:55;;;;;;;3.20;2.40;;;3.50;99.90;;;;;;4921482;28;20039;-51
2024/01/21 12:46:22;;;;;;;4.22;2.38;;;3.50;99.00;;;;;;4870106;28;20599;-56
2024/01/21 12:48:49;;;;;;;3.17;2.38;;;3.40;99.60;;;;;;4870882;28;20034;-55